createdAt,value
2022-10-19T00:01:22.619Z,12.53
2022-10-19T00:03:55.899Z,12.51
2022-10-19T00:06:26.962Z,12.51
2022-10-19T00:08:58.314Z,12.51
2022-10-19T00:11:27.288Z,12.51
2022-10-19T00:13:56.027Z,12.51
2022-10-19T00:16:25.506Z,12.49
2022-10-19T00:18:57.487Z,12.47
2022-10-19T00:21:25.523Z,12.45
2022-10-19T00:23:53.281Z,12.41
2022-10-19T00:26:21.002Z,12.36
2022-10-19T00:28:48.718Z,12.31
2022-10-19T00:31:17.591Z,12.26
2022-10-19T00:33:46.993Z,12.19
2022-10-19T00:36:20.733Z,12.13
2022-10-19T00:38:48.852Z,12.07
2022-10-19T00:41:17.658Z,12.02
2022-10-19T00:44:01.901Z,11.97
2022-10-19T00:46:32.789Z,11.91
2022-10-19T00:49:09.933Z,11.85
2022-10-19T00:51:45.113Z,11.81
2022-10-19T00:54:12.827Z,11.77
2022-10-19T00:56:42.202Z,11.72
2022-10-19T00:59:10.550Z,11.69
2022-10-19T01:01:38.217Z,11.66
2022-10-19T01:04:05.966Z,11.64
2022-10-19T01:06:34.089Z,11.59
2022-10-19T01:09:01.874Z,11.55
2022-10-19T01:11:54.249Z,11.52
2022-10-19T01:14:28.772Z,11.46
2022-10-19T01:17:27.338Z,11.42
2022-10-19T01:20:26.002Z,11.37
2022-10-19T01:23:19.562Z,11.32
2022-10-19T01:26:01.274Z,11.28
2022-10-19T01:28:36.436Z,11.27
2022-10-19T01:31:33.770Z,11.25
2022-10-19T01:34:14.997Z,11.24
2022-10-19T01:37:04.386Z,11.22
2022-10-19T01:39:38.253Z,11.21
2022-10-19T01:42:14.992Z,11.21
2022-10-19T01:44:52.167Z,11.23
2022-10-19T01:47:24.416Z,11.25
2022-10-19T01:50:18.203Z,11.28
2022-10-19T01:52:46.809Z,11.31
2022-10-19T01:55:16.373Z,11.34
2022-10-19T01:57:47.272Z,11.37
2022-10-19T02:00:16.230Z,11.40
2022-10-19T02:02:47.999Z,11.42
2022-10-19T02:05:17.753Z,11.43
2022-10-19T02:07:48.920Z,11.44
2022-10-19T02:10:17.278Z,11.45
2022-10-19T02:12:45.720Z,11.46
2022-10-19T02:15:18.335Z,11.47
2022-10-19T02:17:48.904Z,11.47
2022-10-19T02:20:17.569Z,11.48
2022-10-19T02:22:45.407Z,11.48
2022-10-19T02:25:13.299Z,11.47
2022-10-19T02:27:42.141Z,11.47
2022-10-19T02:30:11.971Z,11.46
2022-10-19T02:32:39.889Z,11.46
2022-10-19T02:35:08.212Z,11.46
2022-10-19T02:40:05.074Z,11.45
2022-10-19T02:42:36.645Z,11.44
2022-10-19T02:45:13.411Z,11.42
2022-10-19T02:47:45.283Z,11.41
2022-10-19T02:50:13.637Z,11.40
2022-10-19T02:52:41.639Z,11.37
2022-10-19T02:55:09.598Z,11.35
2022-10-19T02:57:37.708Z,11.34
2022-10-19T03:00:07.545Z,11.33
2022-10-19T03:02:35.582Z,11.32
2022-10-19T03:05:04.236Z,11.30
2022-10-19T03:07:32.232Z,11.28
2022-10-19T03:10:00.134Z,11.26
2022-10-19T03:12:27.882Z,11.26
2022-10-19T03:14:55.545Z,11.25
2022-10-19T03:17:23.209Z,11.25
2022-10-19T03:19:50.895Z,11.24
2022-10-19T03:22:18.506Z,11.24
2022-10-19T03:24:46.388Z,11.23
2022-10-19T03:27:14.004Z,11.22
2022-10-19T03:29:41.662Z,11.23
2022-10-19T03:32:09.357Z,11.23
2022-10-19T03:34:37.014Z,11.23
2022-10-19T03:37:04.630Z,11.23
2022-10-19T03:39:32.634Z,11.23
2022-10-19T03:42:00.885Z,11.25
2022-10-19T03:44:28.597Z,11.26
2022-10-19T03:46:56.312Z,11.28
2022-10-19T03:49:23.945Z,11.28
2022-10-19T03:51:51.638Z,11.29
2022-10-19T03:54:20.644Z,11.30
2022-10-19T03:56:51.474Z,11.31
2022-10-19T03:59:19.138Z,11.32
2022-10-19T04:01:46.747Z,11.33
2022-10-19T04:04:18.898Z,11.34
2022-10-19T04:06:48.503Z,11.33
2022-10-19T04:09:18.380Z,11.32
2022-10-19T04:11:46.625Z,11.31
2022-10-19T04:14:23.028Z,11.32
2022-10-19T04:17:01.806Z,11.31
2022-10-19T04:19:29.499Z,11.30
2022-10-19T04:21:57.527Z,11.31
2022-10-19T04:24:25.360Z,11.32
2022-10-19T04:26:54.331Z,11.31
2022-10-19T04:29:26.392Z,11.31
2022-10-19T04:31:58.181Z,11.32
2022-10-19T04:34:25.865Z,11.31
2022-10-19T04:36:53.697Z,11.32
2022-10-19T04:39:21.561Z,11.31
2022-10-19T04:41:49.240Z,11.31
2022-10-19T04:44:16.995Z,11.27
2022-10-19T04:46:44.753Z,11.30
2022-10-19T04:49:15.235Z,11.29
2022-10-19T04:51:45.736Z,11.29
2022-10-19T04:54:13.859Z,11.28
2022-10-19T04:56:41.562Z,11.26
2022-10-19T04:59:10.046Z,11.26
2022-10-19T05:01:39.142Z,11.26
2022-10-19T05:04:09.761Z,11.26
2022-10-19T05:06:37.714Z,11.26
2022-10-19T05:09:05.405Z,11.25
2022-10-19T05:11:33.013Z,11.25
2022-10-19T05:14:00.707Z,11.24
2022-10-19T05:16:28.587Z,11.23
2022-10-19T05:18:58.760Z,11.23
2022-10-19T05:21:28.633Z,11.22
2022-10-19T05:23:57.327Z,11.21
2022-10-19T05:26:26.681Z,11.21
2022-10-19T05:28:57.014Z,11.21
2022-10-19T05:31:29.630Z,11.21
2022-10-19T05:33:58.404Z,11.20
2022-10-19T05:36:29.551Z,11.21
2022-10-19T05:38:58.227Z,11.21
2022-10-19T05:41:26.392Z,11.21
2022-10-19T05:43:56.128Z,11.21
2022-10-19T05:46:25.127Z,11.22
2022-10-19T05:48:52.966Z,11.22
2022-10-19T05:51:22.203Z,11.23
2022-10-19T05:53:50.414Z,11.24
2022-10-19T05:56:23.621Z,11.25
2022-10-19T05:58:51.889Z,11.25
2022-10-19T06:01:20.503Z,11.25
2022-10-19T06:03:51.797Z,11.24
2022-10-19T06:06:19.933Z,11.25
2022-10-19T06:08:48.550Z,11.27
2022-10-19T06:11:19.029Z,11.29
2022-10-19T06:13:49.488Z,11.31
2022-10-19T06:16:19.083Z,11.32
2022-10-19T06:18:47.141Z,11.34
2022-10-19T06:21:19.750Z,11.35
2022-10-19T06:23:52.160Z,11.35
2022-10-19T06:26:20.850Z,11.36
2022-10-19T06:28:49.217Z,11.37
2022-10-19T06:31:17.370Z,11.39
2022-10-19T06:33:48.641Z,11.41
2022-10-19T06:36:20.382Z,11.44
2022-10-19T06:38:49.590Z,11.46
2022-10-19T06:41:17.530Z,11.47
2022-10-19T06:43:49.918Z,11.48
2022-10-19T06:46:20.758Z,11.50
2022-10-19T06:48:57.198Z,11.52
2022-10-19T06:51:26.971Z,11.53
2022-10-19T06:53:57.094Z,11.55
2022-10-19T06:56:26.241Z,11.58
2022-10-19T06:58:55.318Z,11.63
2022-10-19T07:01:24.232Z,11.66
2022-10-19T07:03:52.347Z,11.69
2022-10-19T07:06:21.149Z,11.73
2022-10-19T07:08:49.396Z,11.76
2022-10-19T07:11:19.770Z,11.80
2022-10-19T07:13:47.727Z,11.84
2022-10-19T07:16:20.738Z,11.88
2022-10-19T07:18:51.733Z,11.90
2022-10-19T07:21:21.409Z,11.89
2022-10-19T07:23:49.346Z,11.89
2022-10-19T07:26:26.964Z,11.92
2022-10-19T07:28:57.077Z,11.93
2022-10-19T07:31:26.618Z,11.92
2022-10-19T07:33:56.236Z,11.94
2022-10-19T07:36:24.822Z,11.97
2022-10-19T07:38:53.131Z,12.01
2022-10-19T07:41:23.058Z,11.98
2022-10-19T07:43:51.548Z,11.96
2022-10-19T07:46:21.544Z,11.95
2022-10-19T07:48:49.722Z,11.96
2022-10-19T07:51:18.793Z,11.97
2022-10-19T07:53:46.641Z,12.03
2022-10-19T07:56:17.320Z,12.11
2022-10-19T07:58:45.872Z,12.13
2022-10-19T08:01:19.390Z,12.16
2022-10-19T08:06:36.677Z,12.20
2022-10-19T08:09:05.603Z,12.19
2022-10-19T08:11:35.185Z,12.21
2022-10-19T08:14:04.150Z,12.22
2022-10-19T08:16:34.443Z,12.24
2022-10-19T08:19:05.613Z,12.25
2022-10-19T08:21:33.622Z,12.25
2022-10-19T08:24:01.464Z,12.26
2022-10-19T08:26:32.006Z,12.26
2022-10-19T08:29:01.253Z,12.25
2022-10-19T08:31:29.120Z,12.24
2022-10-19T08:33:57.024Z,12.19
2022-10-19T08:36:24.984Z,12.19
2022-10-19T08:38:52.737Z,12.18
2022-10-19T08:41:38.167Z,12.18
2022-10-19T08:44:44.003Z,12.14
2022-10-19T08:47:33.886Z,12.10
2022-10-19T08:50:01.895Z,12.07
2022-10-19T08:52:34.921Z,12.07
2022-10-19T08:55:09.172Z,12.08
2022-10-19T08:57:55.928Z,12.12
2022-10-19T09:00:42.661Z,12.19
2022-10-19T09:03:31.943Z,12.23
2022-10-19T09:06:24.517Z,12.31
2022-10-19T09:08:54.250Z,12.34
2022-10-19T09:11:26.135Z,12.36
2022-10-19T09:14:38.955Z,12.37
2022-10-19T09:17:14.240Z,12.28
2022-10-19T09:19:41.977Z,12.20
2022-10-19T09:22:21.590Z,12.15
2022-10-19T09:24:52.336Z,12.07
2022-10-19T09:27:22.759Z,12.03
2022-10-19T09:29:56.568Z,11.99
2022-10-19T09:32:38.658Z,11.91
2022-10-19T09:35:20.804Z,11.83
2022-10-19T09:37:49.666Z,11.76
2022-10-19T09:40:22.913Z,11.71
2022-10-19T09:43:03.569Z,11.69
2022-10-19T09:45:40.327Z,11.71
2022-10-19T09:48:38.441Z,11.74
2022-10-19T09:51:12.726Z,11.80
2022-10-19T09:53:49.392Z,11.85
2022-10-19T09:56:21.697Z,11.89
2022-10-19T09:58:55.093Z,11.89
2022-10-19T10:01:41.457Z,11.86
2022-10-19T10:04:15.696Z,11.81
2022-10-19T10:06:45.263Z,11.78
2022-10-19T10:09:22.940Z,11.74
2022-10-19T10:11:51.769Z,11.70
2022-10-19T10:14:29.728Z,11.68
2022-10-19T10:17:01.724Z,11.66
2022-10-19T10:19:31.867Z,11.66
2022-10-19T10:22:00.285Z,11.68
2022-10-19T10:24:31.285Z,11.68
2022-10-19T10:27:04.937Z,11.69
2022-10-19T10:29:36.825Z,11.72
2022-10-19T10:32:13.100Z,11.77
2022-10-19T10:34:54.781Z,11.82
2022-10-19T10:37:33.117Z,11.86
2022-10-19T10:40:03.747Z,11.92
2022-10-19T10:42:37.414Z,11.95
2022-10-19T10:45:16.970Z,12.02
2022-10-19T10:47:48.392Z,12.09
2022-10-19T10:50:25.278Z,12.16
2022-10-19T10:53:10.918Z,12.12
2022-10-19T10:55:38.664Z,12.23
2022-10-19T10:58:16.917Z,12.27
2022-10-19T11:00:45.073Z,12.29
2022-10-19T11:03:17.494Z,12.31
2022-10-19T11:05:48.305Z,12.34
2022-10-19T11:08:22.651Z,12.40
2022-10-19T11:11:08.979Z,12.47
2022-10-19T11:14:05.022Z,12.49
2022-10-19T11:16:41.723Z,12.49
2022-10-19T11:19:39.681Z,12.49
2022-10-19T11:22:35.989Z,12.48
2022-10-19T11:25:31.691Z,12.44
2022-10-19T11:28:19.847Z,12.37
2022-10-19T11:31:13.228Z,12.29
2022-10-19T11:33:49.085Z,12.20
2022-10-19T11:36:30.033Z,12.16
2022-10-19T11:39:03.878Z,12.12
2022-10-19T11:42:00.968Z,12.12
2022-10-19T11:44:37.616Z,12.13
2022-10-19T11:47:29.599Z,12.10
2022-10-19T11:53:10.345Z,12.05
2022-10-19T11:55:46.308Z,12.01
2022-10-19T11:58:39.221Z,12.01
2022-10-19T12:01:32.834Z,12.03
2022-10-19T12:04:11.776Z,12.08
2022-10-19T12:07:21.855Z,12.14
2022-10-19T12:10:17.054Z,12.16
2022-10-19T12:12:49.210Z,12.20
2022-10-19T12:15:21.131Z,12.27
2022-10-19T12:17:50.605Z,12.40
2022-10-19T12:20:26.730Z,12.51
2022-10-19T12:22:54.566Z,12.61
2022-10-19T12:25:22.694Z,12.68
2022-10-19T12:27:51.592Z,12.72
2022-10-19T12:30:21.044Z,12.74
2022-10-19T12:32:54.921Z,12.63
2022-10-19T12:35:25.623Z,12.43
2022-10-19T12:38:29.821Z,12.24
2022-10-19T12:41:10.036Z,11.95
2022-10-19T12:43:45.631Z,11.74
2022-10-19T12:46:37.434Z,11.61
2022-10-19T12:49:27.164Z,11.52
2022-10-19T12:51:56.712Z,11.46
2022-10-19T12:54:26.984Z,11.42
2022-10-19T12:56:56.957Z,11.40
2022-10-19T12:59:31.672Z,11.40
2022-10-19T13:02:01.568Z,11.39
2022-10-19T13:04:34.590Z,11.39
2022-10-19T13:07:05.053Z,11.42
2022-10-19T13:09:44.447Z,11.47
2022-10-19T13:12:22.034Z,11.52
2022-10-19T13:15:00.514Z,11.58
2022-10-19T13:17:36.891Z,11.60
2022-10-19T13:20:14.069Z,11.63
2022-10-19T13:22:46.475Z,11.68
2022-10-19T13:25:23.925Z,11.73
2022-10-19T13:28:15.660Z,11.77
2022-10-19T13:30:43.983Z,11.82
2022-10-19T13:33:33.212Z,11.86
2022-10-19T13:36:04.419Z,11.92
2022-10-19T13:38:33.674Z,11.95
2022-10-19T13:41:12.446Z,11.95
2022-10-19T13:43:51.673Z,11.97
2022-10-19T13:46:39.569Z,11.98
2022-10-19T13:49:32.789Z,12.00
2022-10-19T13:52:19.141Z,12.02
2022-10-19T13:55:18.884Z,12.04
2022-10-19T13:58:14.146Z,12.05
2022-10-19T14:00:55.755Z,12.05
2022-10-19T14:03:50.727Z,12.04
2022-10-19T14:06:28.409Z,12.01
2022-10-19T14:08:59.646Z,12.01
2022-10-19T14:11:39.008Z,12.02
2022-10-19T14:14:14.576Z,12.05
2022-10-19T14:16:52.055Z,12.03
2022-10-19T14:19:27.261Z,12.01
2022-10-19T14:21:57.735Z,11.99
2022-10-19T14:24:34.897Z,11.99
2022-10-19T14:27:05.851Z,11.99
2022-10-19T14:29:42.254Z,11.99
2022-10-19T14:32:11.015Z,12.00
2022-10-19T14:34:43.253Z,12.02
2022-10-19T14:37:21.432Z,12.02
2022-10-19T14:40:05.660Z,11.99
2022-10-19T14:42:45.860Z,11.95
2022-10-19T14:45:19.843Z,11.91
2022-10-19T14:48:07.254Z,11.86
2022-10-19T14:50:42.998Z,11.79
2022-10-19T14:53:36.042Z,11.73
2022-10-19T14:56:26.626Z,11.65
2022-10-19T14:59:12.752Z,11.57
2022-10-19T15:01:40.809Z,11.51
2022-10-19T15:04:08.641Z,11.48
2022-10-19T15:06:43.186Z,11.45
2022-10-19T15:09:37.641Z,11.41
2022-10-19T15:12:18.433Z,11.35
2022-10-19T15:14:46.528Z,11.33
2022-10-19T15:17:27.156Z,11.34
2022-10-19T15:20:04.658Z,11.34
2022-10-19T15:22:41.188Z,11.34
2022-10-19T15:25:08.833Z,11.34
2022-10-19T15:27:39.431Z,11.34
2022-10-19T15:30:21.091Z,11.34
2022-10-19T15:32:51.392Z,11.33
2022-10-19T15:35:34.083Z,11.33
2022-10-19T15:38:10.184Z,11.32
2022-10-19T15:40:39.836Z,11.32
2022-10-19T15:43:44.106Z,11.31
2022-10-19T15:46:44.864Z,11.28
2022-10-19T15:49:15.756Z,11.23
2022-10-19T15:51:45.470Z,11.19
2022-10-19T15:54:18.932Z,11.16
2022-10-19T15:56:50.786Z,11.11
2022-10-19T15:59:21.146Z,11.07
2022-10-19T16:01:55.103Z,11.02
2022-10-19T16:04:23.799Z,10.97
2022-10-19T16:06:51.626Z,10.90
2022-10-19T16:09:21.222Z,10.85
2022-10-19T16:11:50.276Z,10.80
2022-10-19T16:14:18.005Z,10.72
2022-10-19T16:16:45.739Z,10.71
2022-10-19T16:19:13.521Z,10.68
2022-10-19T16:21:41.554Z,10.66
2022-10-19T16:24:09.304Z,10.67
2022-10-19T16:26:37.043Z,10.65
2022-10-19T16:29:04.804Z,10.64
2022-10-19T16:31:32.699Z,10.64
2022-10-19T16:34:00.863Z,10.65
2022-10-19T16:36:28.566Z,10.65
2022-10-19T16:38:56.346Z,10.68
2022-10-19T16:41:24.394Z,10.68
2022-10-19T16:43:56.188Z,10.67
2022-10-19T16:46:25.050Z,10.67
2022-10-19T16:48:53.222Z,10.68
2022-10-19T16:51:27.964Z,10.67
2022-10-19T16:53:57.519Z,10.65
2022-10-19T16:56:27.718Z,10.64
2022-10-19T16:58:58.141Z,10.61
2022-10-19T17:01:26.251Z,10.58
2022-10-19T17:03:54.476Z,10.54
2022-10-19T17:06:23.701Z,10.50
2022-10-19T17:09:23.635Z,10.45
2022-10-19T17:11:41.293Z,10.38
2022-10-19T17:14:12.077Z,10.34
2022-10-19T17:16:40.250Z,10.28
2022-10-19T17:19:08.975Z,10.25
2022-10-19T17:21:39.980Z,10.23
2022-10-19T17:24:08.864Z,10.17
2022-10-19T17:26:39.365Z,10.18
2022-10-19T17:29:07.127Z,10.14
2022-10-19T17:31:36.596Z,10.10
2022-10-19T17:34:05.326Z,10.04
2022-10-19T17:36:35.925Z,9.96
2022-10-19T17:39:09.824Z,9.88
2022-10-19T17:41:39.995Z,9.78
2022-10-19T17:44:09.980Z,9.71
2022-10-19T17:46:37.743Z,9.63
2022-10-19T17:49:05.631Z,9.58
2022-10-19T17:51:35.728Z,9.52
2022-10-19T17:54:11.599Z,9.46
2022-10-19T17:56:39.929Z,9.39
2022-10-19T17:59:09.040Z,9.34
2022-10-19T18:01:37.543Z,9.30
2022-10-19T18:04:05.411Z,9.26
2022-10-19T18:06:35.983Z,9.22
2022-10-19T18:09:08.696Z,9.16
2022-10-19T18:11:40.608Z,9.10
2022-10-19T18:14:09.421Z,9.04
2022-10-19T18:16:40.307Z,8.97
2022-10-19T18:19:09.047Z,8.92
2022-10-19T18:21:39.431Z,8.87
2022-10-19T18:24:11.306Z,8.82
2022-10-19T18:26:42.671Z,8.77
2022-10-19T18:29:13.736Z,8.70
2022-10-19T18:31:41.533Z,8.60
2022-10-19T18:34:13.431Z,8.51
2022-10-19T18:36:41.590Z,8.39
2022-10-19T18:39:11.260Z,8.30
2022-10-19T18:41:38.994Z,8.20
2022-10-19T18:44:07.895Z,8.10
2022-10-19T18:46:38.050Z,8.01
2022-10-19T18:49:08.195Z,7.95
2022-10-19T18:51:36.064Z,7.87
2022-10-19T18:54:04.010Z,7.78
2022-10-19T18:56:33.452Z,7.68
2022-10-19T18:59:01.209Z,7.61
2022-10-19T19:01:29.123Z,7.55
2022-10-19T19:04:04.339Z,7.51
2022-10-19T19:06:34.422Z,7.49
2022-10-19T19:09:05.894Z,7.45
2022-10-19T19:11:36.895Z,7.39
2022-10-19T19:14:26.869Z,7.32
2022-10-19T19:16:54.833Z,7.24
2022-10-19T19:19:24.461Z,7.17
2022-10-19T19:21:52.083Z,7.15
2022-10-19T19:24:22.051Z,7.15
2022-10-19T19:26:51.974Z,7.17
2022-10-19T19:29:20.931Z,7.16
2022-10-19T19:31:48.773Z,7.16
2022-10-19T19:34:16.825Z,7.15
2022-10-19T19:36:48.746Z,7.14
2022-10-19T19:39:19.941Z,7.13
2022-10-19T19:41:49.038Z,7.10
2022-10-19T19:44:17.364Z,7.05
2022-10-19T19:46:45.051Z,6.99
2022-10-19T19:49:12.789Z,6.92
2022-10-19T19:51:40.430Z,6.88
2022-10-19T19:54:08.322Z,6.86
2022-10-19T19:56:37.402Z,6.84
2022-10-19T19:59:05.112Z,6.83
2022-10-19T20:01:33.001Z,6.81
2022-10-19T20:06:36.424Z,6.73
2022-10-19T20:09:05.301Z,6.67
2022-10-19T20:11:36.017Z,6.62
2022-10-19T20:14:05.158Z,6.55
2022-10-19T20:16:33.435Z,6.49
2022-10-19T20:19:06.031Z,6.44
2022-10-19T20:21:33.875Z,6.44
2022-10-19T20:24:01.923Z,6.42
2022-10-19T20:26:30.414Z,6.42
2022-10-19T20:28:58.424Z,6.42
2022-10-19T20:31:26.103Z,6.42
2022-10-19T20:33:53.785Z,6.45
2022-10-19T20:36:25.039Z,6.46
2022-10-19T20:38:55.648Z,6.45
2022-10-19T20:41:25.459Z,6.40
2022-10-19T20:43:53.797Z,6.36
2022-10-19T20:46:27.330Z,6.31
2022-10-19T20:48:56.761Z,6.29
2022-10-19T20:51:30.773Z,6.26
2022-10-19T20:54:02.210Z,6.26
2022-10-19T20:56:32.529Z,6.27
2022-10-19T21:01:32.318Z,6.28
2022-10-19T21:04:03.358Z,6.27
2022-10-19T21:06:34.017Z,6.28
2022-10-19T21:09:01.820Z,6.29
2022-10-19T21:11:32.572Z,6.31
2022-10-19T21:14:03.404Z,6.30
2022-10-19T21:16:34.114Z,6.30
2022-10-19T21:19:03.077Z,6.28
2022-10-19T21:21:35.092Z,6.26
2022-10-19T21:24:06.279Z,6.25
2022-10-19T21:26:35.635Z,6.23
2022-10-19T21:29:05.008Z,6.21
2022-10-19T21:31:32.627Z,6.17
2022-10-19T21:34:04.754Z,6.11
2022-10-19T21:36:33.402Z,6.06
2022-10-19T21:39:01.322Z,6.01
2022-10-19T21:41:29.115Z,5.95
2022-10-19T21:43:56.809Z,5.91
2022-10-19T21:46:25.856Z,5.87
2022-10-19T21:48:55.048Z,5.83
2022-10-19T21:51:31.723Z,5.79
2022-10-19T21:53:59.578Z,5.76
2022-10-19T21:56:27.866Z,5.74
2022-10-19T21:58:55.957Z,5.72
2022-10-19T22:01:26.174Z,5.71
2022-10-19T22:03:58.717Z,5.68
2022-10-19T22:06:29.000Z,5.64
2022-10-19T22:08:57.748Z,5.59
2022-10-19T22:11:26.136Z,5.57
2022-10-19T22:13:58.618Z,5.55
2022-10-19T22:16:27.422Z,5.53
2022-10-19T22:18:55.662Z,5.51
2022-10-19T22:21:26.785Z,5.49
2022-10-19T22:24:00.678Z,5.46
2022-10-19T22:26:34.377Z,5.43
2022-10-19T22:29:03.467Z,5.39
2022-10-19T22:31:31.959Z,5.35
2022-10-19T22:34:01.364Z,5.35
2022-10-19T22:36:29.589Z,5.31
2022-10-19T22:38:57.253Z,5.26
2022-10-19T22:41:24.987Z,5.24
2022-10-19T22:43:52.651Z,5.19
2022-10-19T22:46:20.394Z,5.15
2022-10-19T22:48:48.119Z,5.11
2022-10-19T22:51:15.821Z,5.06
2022-10-19T22:53:43.894Z,5.03
2022-10-19T22:56:12.607Z,5.02
2022-10-19T22:58:40.443Z,5.02
2022-10-19T23:01:10.976Z,5.04
2022-10-19T23:03:40.398Z,5.05
2022-10-19T23:06:09.939Z,5.06
2022-10-19T23:08:38.361Z,5.06
2022-10-19T23:11:06.152Z,5.07
2022-10-19T23:13:34.091Z,5.08
2022-10-19T23:16:02.134Z,5.08
2022-10-19T23:18:34.159Z,5.07
2022-10-19T23:21:05.303Z,5.05
2022-10-19T23:23:34.504Z,5.05
2022-10-19T23:26:05.869Z,5.04
2022-10-19T23:28:36.108Z,5.01
2022-10-19T23:31:09.756Z,5.00
2022-10-19T23:33:37.567Z,4.97
2022-10-19T23:36:22.590Z,4.96
2022-10-19T23:38:51.373Z,4.94
2022-10-19T23:41:19.959Z,4.90
2022-10-19T23:43:48.235Z,4.88
2022-10-19T23:46:15.984Z,4.87
2022-10-19T23:48:44.035Z,4.87
2022-10-19T23:51:17.231Z,4.86
2022-10-19T23:53:46.388Z,4.85
2022-10-19T23:56:16.697Z,4.85
2022-10-19T23:58:44.768Z,4.87
